Time;durP1;ratioP1;P1;durP2;ratioP2;P2;SDS_P1;SDS_P2;PMS_P1;PMS_P2;Temp;Humidity;BMP_temperature;BMP_pressure;BME280_temperature;BME280_humidity;BME280_pressure;Samples;Min_cycle;Max_cycle;Signal;HPM_P1;HPM_P2
2023/06/07 00:01:08;;;;;;;;;;;;;;;;;;5048514;28;20023;-50
2023/06/07 00:03:34;;;;;;;;;;;;;;;;;;5049492;28;20433;-50
2023/06/07 00:06:03;;;;;;;;;;;;;;;;;;5046555;28;19995;-51
2023/06/07 00:08:29;;;;;;;;;;;;;;;;;;5048080;28;20015;-50
2023/06/07 00:10:55;;;;;;;;;;;;;;;;;;5048494;28;20192;-51
2023/06/07 00:13:21;;;;;;;;;;;;;;;;;;5040920;28;19944;-50
2023/06/07 00:15:47;;;;;;;;;;;;;;;;;;5042158;28;19960;-50
2023/06/07 00:18:15;;;;;;;;;;;;;;;;;;5046171;28;20460;-50
2023/06/07 00:20:45;;;;;;;;;;;;;;;;;;5048142;28;20426;-50
2023/06/07 00:23:13;;;;;;;;;;;;;;;;;;5048884;28;19952;-49
2023/06/07 00:25:39;;;;;;;;;;;;;;;;;;5048045;28;19912;-49
2023/06/07 00:28:05;;;;;;;;;;;;;;;;;;5047446;28;20047;-51
2023/06/07 00:30:31;;;;;;;;;;;;;;;;;;5048619;28;20419;-51
2023/06/07 00:32:56;;;;;;;;;;;;;;;;;;5047830;28;20006;-51
2023/06/07 00:35:22;;;;;;;;;;;;;;;;;;5048448;28;19963;-50
2023/06/07 00:37:48;;;;;;;;;;;;;;;;;;5048226;28;19958;-50
2023/06/07 00:40:15;;;;;;;;;;;;;;;;;;5048098;28;20486;-50
2023/06/07 00:42:40;;;;;;;;;;;;;;;;;;5047430;28;19986;-51
2023/06/07 00:45:06;;;;;;;;;;;;;;;;;;5048453;28;19960;-51
2023/06/07 00:47:32;;;;;;;;;;;;;;;;;;5047634;28;20004;-50
2023/06/07 00:49:58;;;;;;;;;;;;;;;;;;5048608;28;20398;-50
2023/06/07 00:52:24;;;;;;;;;;;;;;;;;;5037423;28;19975;-50
2023/06/07 00:54:51;;;;;;;;;;;;;;;;;;5047934;28;20127;-50
2023/06/07 00:57:16;;;;;;;;;;;;;;;;;;5046213;28;19960;-51
2023/06/07 00:59:42;;;;;;;;;;;;;;;;;;5048298;28;20408;-50
2023/06/07 01:02:08;;;;;;;;;;;;;;;;;;5040059;28;19983;-49
2023/06/07 01:04:34;;;;;;;;;;;;;;;;;;5038035;28;19967;-49
2023/06/07 01:07:02;;;;;;;;;;;;;;;;;;5047152;28;19956;-49
2023/06/07 01:09:28;;;;;;;;;;;;;;;;;;5048184;28;19917;-49
2023/06/07 01:11:54;;;;;;;;;;;;;;;;;;5044041;28;19938;-49
2023/06/07 01:14:20;;;;;;;;;;;;;;;;;;5026237;28;19948;-49
2023/06/07 01:16:48;;;;;;;;;;;;;;;;;;5045276;28;19955;-49
2023/06/07 01:19:14;;;;;;;;;;;;;;;;;;5045568;28;20004;-49
2023/06/07 01:21:40;;;;;;;;;;;;;;;;;;5040859;28;19995;-50
2023/06/07 01:24:07;;;;;;;;;;;;;;;;;;5055489;28;19953;-50
2023/06/07 01:26:33;;;;;;;;;;;;;;;;;;5056847;28;20012;-50
2023/06/07 01:29:05;;;;;;;;;;;;;;;;;;5052523;28;20031;-50
2023/06/07 01:31:31;;;;;;;;;;;;;;;;;;5051382;28;19917;-50
2023/06/07 01:33:57;;;;;;;;;;;;;;;;;;5051932;28;19958;-48
2023/06/07 01:36:23;;;;;;;;;;;;;;;;;;5051757;28;19960;-48
2023/06/07 01:38:49;;;;;;;;;;;;;;;;;;5051992;28;19963;-49
2023/06/07 01:41:15;;;;;;;;;;;;;;;;;;5050017;28;19913;-50
2023/06/07 01:43:41;;;;;;;;;;;;;;;;;;5051616;28;20004;-49
2023/06/07 01:46:07;;;;;;;;;;;;;;;;;;5050635;28;19921;-49
2023/06/07 01:48:33;;;;;;;;;;;;;;;;;;5051075;28;20742;-50
2023/06/07 01:50:59;;;;;;;;;;;;;;;;;;5051559;28;19963;-49
2023/06/07 01:53:25;;;;;;;;;;;;;;;;;;5052084;28;20315;-49
2023/06/07 01:55:51;;;;;;;;;;;;;;;;;;5050048;28;20333;-49
2023/06/07 01:58:17;;;;;;;;;;;;;;;;;;5050677;28;20380;-49
2023/06/07 02:00:43;;;;;;;;;;;;;;;;;;5049453;28;19967;-50
2023/06/07 02:03:09;;;;;;;;;;;;;;;;;;5032457;28;19997;-50
2023/06/07 02:05:35;;;;;;;;;;;;;;;;;;5050678;28;19989;-50
2023/06/07 02:08:01;;;;;;;;;;;;;;;;;;5051565;28;19967;-50
2023/06/07 02:10:27;;;;;;;;;;;;;;;;;;5050265;28;20383;-50
2023/06/07 02:12:52;;;;;;;;;;;;;;;;;;5050922;28;19938;-50
2023/06/07 02:15:18;;;;;;;;;;;;;;;;;;5050151;28;19963;-50
2023/06/07 02:17:46;;;;;;;;;;;;;;;;;;5051618;28;20334;-50
2023/06/07 02:20:13;;;;;;;;;;;;;;;;;;5050204;28;20002;-50
2023/06/07 02:22:39;;;;;;;;;;;;;;;;;;5042228;28;19916;-50
2023/06/07 02:25:05;;;;;;;;;;;;;;;;;;5047230;28;20245;-50
2023/06/07 02:27:30;;;;;;;;;;;;;;;;;;5050350;28;20400;-50
2023/06/07 02:29:56;;;;;;;;;;;;;;;;;;5050744;28;20391;-50
2023/06/07 02:32:22;;;;;;;;;;;;;;;;;;5051181;28;20380;-50
2023/06/07 02:34:48;;;;;;;;;;;;;;;;;;5050592;28;20418;-50
2023/06/07 02:37:15;;;;;;;;;;;;;;;;;;5049842;28;20027;-50
2023/06/07 02:39:41;;;;;;;;;;;;;;;;;;5051204;28;19935;-50
2023/06/07 02:42:07;;;;;;;;;;;;;;;;;;5048588;28;19960;-50
2023/06/07 02:44:33;;;;;;;;;;;;;;;;;;5050999;28;20025;-50
2023/06/07 02:46:59;;;;;;;;;;;;;;;;;;5048532;28;19966;-50
2023/06/07 02:49:25;;;;;;;;;;;;;;;;;;5050450;28;20018;-50
2023/06/07 02:51:51;;;;;;;;;;;;;;;;;;5050449;28;20272;-50
2023/06/07 02:54:19;;;;;;;;;;;;;;;;;;5052170;28;20221;-50
2023/06/07 02:56:45;;;;;;;;;;;;;;;;;;5048124;28;19917;-50
2023/06/07 02:59:11;;;;;;;;;;;;;;;;;;5050181;28;20035;-50
2023/06/07 03:01:37;;;;;;;;;;;;;;;;;;5050203;28;19968;-50
2023/06/07 03:04:03;;;;;;;;;;;;;;;;;;5050696;28;19913;-50
2023/06/07 03:06:29;;;;;;;;;;;;;;;;;;5050090;28;20035;-50
2023/06/07 03:08:55;;;;;;;;;;;;;;;;;;5050871;28;20315;-51
2023/06/07 03:11:21;;;;;;;;;;;;;;;;;;5047225;28;19963;-50
2023/06/07 03:13:47;;;;;;;;;;;;;;;;;;5050444;28;19963;-50
2023/06/07 03:16:13;;;;;;;;;;;;;;;;;;5049035;28;19967;-50
2023/06/07 03:18:39;;;;;;;;;;;;;;;;;;5050836;28;19990;-50
2023/06/07 03:21:06;;;;;;;;;;;;;;;;;;5049123;28;19917;-50
2023/06/07 03:23:31;;;;;;;;;;;;;;;;;;5050289;28;19917;-50
2023/06/07 03:25:58;;;;;;;;;;;;;;;;;;5042994;28;20376;-51
2023/06/07 03:28:24;;;;;;;;;;;;;;;;;;5048568;28;19913;-50
2023/06/07 03:30:50;;;;;;;;;;;;;;;;;;5047165;28;20086;-50
2023/06/07 03:33:16;;;;;;;;;;;;;;;;;;5043687;28;19948;-50
2023/06/07 03:35:44;;;;;;;;;;;;;;;;;;5045824;28;20022;-50
2023/06/07 03:38:10;;;;;;;;;;;;;;;;;;5049393;28;19920;-50
2023/06/07 03:40:36;;;;;;;;;;;;;;;;;;5039609;28;20035;-50
2023/06/07 03:43:02;;;;;;;;;;;;;;;;;;5045755;28;19967;-50
2023/06/07 03:45:28;;;;;;;;;;;;;;;;;;5048357;28;19958;-50
2023/06/07 03:47:54;;;;;;;;;;;;;;;;;;5042876;28;20019;-50
2023/06/07 03:50:20;;;;;;;;;;;;;;;;;;5041029;28;19913;-50
2023/06/07 03:52:46;;;;;;;;;;;;;;;;;;5044360;28;19955;-50
2023/06/07 03:55:12;;;;;;;;;;;;;;;;;;5046923;28;20013;-49
2023/06/07 03:57:38;;;;;;;;;;;;;;;;;;5029312;28;20018;-50
2023/06/07 04:00:11;;;;;;;;;;;;;;;;;;5031404;28;19909;-49
2023/06/07 04:02:37;;;;;;;;;;;;;;;;;;5049648;28;19924;-49
2023/06/07 04:05:03;;;;;;;;;;;;;;;;;;5046873;28;19948;-50
2023/06/07 04:07:30;;;;;;;;;;;;;;;;;;5031054;28;19929;-50
2023/06/07 04:09:56;;;;;;;;;;;;;;;;;;5046983;28;19947;-49
2023/06/07 04:12:22;;;;;;;;;;;;;;;;;;5047824;28;19960;-50
2023/06/07 04:14:47;;;;;;;;;;;;;;;;;;5049326;28;19919;-50
2023/06/07 04:17:14;;;;;;;;;;;;;;;;;;5048611;28;20361;-50
2023/06/07 04:19:40;;;;;;;;;;;;;;;;;;5048481;28;20433;-50
2023/06/07 04:22:06;;;;;;;;;;;;;;;;;;5048759;28;19912;-50
2023/06/07 04:24:32;;;;;;;;;;;;;;;;;;5049423;28;19952;-50
2023/06/07 04:26:58;;;;;;;;;;;;;;;;;;5047656;28;20450;-50
2023/06/07 04:29:27;;;;;;;;;;;;;;;;;;5040586;28;20543;-51
2023/06/07 04:31:56;;;;;;;;;;;;;;;;;;5048558;28;19952;-50
2023/06/07 04:34:23;;;;;;;;;;;;;;;;;;5029631;28;19916;-50
2023/06/07 04:36:49;;;;;;;;;;;;;;;;;;5048450;28;19916;-50
2023/06/07 04:39:16;;;;;;;;;;;;;;;;;;5047685;28;19913;-50
2023/06/07 04:41:42;;;;;;;;;;;;;;;;;;5048148;28;19913;-50
2023/06/07 04:44:08;;;;;;;;;;;;;;;;;;5038685;28;20013;-51
2023/06/07 04:46:39;;;;;;;;;;;;;;;;;;5036681;28;19946;-50
2023/06/07 04:49:05;;;;;;;;;;;;;;;;;;5046431;28;20424;-50
2023/06/07 04:51:32;;;;;;;;;;;;;;;;;;5027113;28;20068;-50
2023/06/07 04:54:01;;;;;;;;;;;;;;;;;;5034133;28;19913;-50
2023/06/07 04:56:27;;;;;;;;;;;;;;;;;;5038667;28;20335;-50
2023/06/07 04:58:53;;;;;;;;;;;;;;;;;;5037198;28;19971;-50
2023/06/07 05:01:19;;;;;;;;;;;;;;;;;;5046169;28;19917;-50
2023/06/07 05:03:45;;;;;;;;;;;;;;;;;;5043420;28;20365;-50
2023/06/07 05:06:11;;;;;;;;;;;;;;;;;;5036440;28;19962;-50
2023/06/07 05:08:37;;;;;;;;;;;;;;;;;;5040947;28;19925;-50
2023/06/07 05:11:03;;;;;;;;;;;;;;;;;;5039888;28;19956;-50
2023/06/07 05:13:29;;;;;;;;;;;;;;;;;;5047822;28;19972;-49
2023/06/07 05:15:55;;;;;;;;;;;;;;;;;;5045843;28;19960;-49
2023/06/07 05:18:21;;;;;;;;;;;;;;;;;;5047940;28;19987;-50
2023/06/07 05:20:47;;;;;;;;;;;;;;;;;;5047886;28;20029;-49
2023/06/07 05:23:16;;;;;;;;;;;;;;;;;;5047442;28;19916;-49
2023/06/07 05:25:42;;;;;;;;;;;;;;;;;;5042092;28;19921;-49
2023/06/07 05:28:08;;;;;;;;;;;;;;;;;;5047696;28;19959;-49
2023/06/07 05:30:34;;;;;;;;;;;;;;;;;;5038923;28;19983;-52
2023/06/07 05:33:00;;;;;;;;;;;;;;;;;;5044804;28;20437;-50
2023/06/07 05:35:26;;;;;;;;;;;;;;;;;;5045165;28;20410;-50
2023/06/07 05:37:52;;;;;;;;;;;;;;;;;;5040534;28;19975;-49
2023/06/07 05:40:19;;;;;;;;;;;;;;;;;;5043525;28;19970;-50
2023/06/07 05:42:45;;;;;;;;;;;;;;;;;;5045777;28;19940;-50
2023/06/07 05:45:11;;;;;;;;;;;;;;;;;;5045029;28;19917;-50
2023/06/07 05:47:36;;;;;;;;;;;;;;;;;;5045668;28;19974;-50
2023/06/07 05:50:04;;;;;;;;;;;;;;;;;;5042713;28;19955;-49
2023/06/07 05:52:30;;;;;;;;;;;;;;;;;;5043414;28;19917;-51
2023/06/07 05:54:57;;;;;;;;;;;;;;;;;;5024947;28;19920;-50
2023/06/07 05:57:23;;;;;;;;;;;;;;;;;;5043172;28;20461;-50
2023/06/07 05:59:50;;;;;;;;;;;;;;;;;;5044900;28;20265;-50
2023/06/07 06:02:17;;;;;;;;;;;;;;;;;;5046824;28;19948;-50
2023/06/07 06:04:43;;;;;;;;;;;;;;;;;;5046577;28;20329;-49
2023/06/07 06:07:10;;;;;;;;;;;;;;;;;;5045378;28;20287;-50
2023/06/07 06:09:36;;;;;;;;;;;;;;;;;;5038385;28;20002;-50
2023/06/07 06:12:02;;;;;;;;;;;;;;;;;;5039805;28;20396;-50
2023/06/07 06:14:28;;;;;;;;;;;;;;;;;;5023698;28;20542;-49
2023/06/07 06:16:54;;;;;;;;;;;;;;;;;;5043893;28;19920;-51
2023/06/07 06:19:20;;;;;;;;;;;;;;;;;;5043711;28;20368;-49
2023/06/07 06:21:46;;;;;;;;;;;;;;;;;;5045115;28;19917;-49
2023/06/07 06:24:12;;;;;;;;;;;;;;;;;;5047217;28;20012;-49
2023/06/07 06:26:38;;;;;;;;;;;;;;;;;;5047022;28;20044;-50
2023/06/07 06:29:04;;;;;;;;;;;;;;;;;;5049433;28;20014;-49
2023/06/07 06:31:30;;;;;;;;;;;;;;;;;;5051604;28;19987;-50
2023/06/07 06:33:56;;;;;;;;;;;;;;;;;;5046386;28;20110;-50
2023/06/07 06:36:21;;;;;;;;;;;;;;;;;;5049711;28;19948;-49
2023/06/07 06:38:47;;;;;;;;;;;;;;;;;;5047462;28;20014;-49
2023/06/07 06:41:13;;;;;;;;;;;;;;;;;;5039913;28;20036;-49
2023/06/07 06:43:39;;;;;;;;;;;;;;;;;;5049121;28;20372;-50
2023/06/07 06:46:05;;;;;;;;;;;;;;;;;;5039190;28;19959;-50
2023/06/07 06:48:31;;;;;;;;;;;;;;;;;;5043708;28;20356;-48
2023/06/07 06:50:57;;;;;;;;;;;;;;;;;;5036538;28;19955;-49
2023/06/07 06:53:23;;;;;;;;;;;;;;;;;;5047919;28;19956;-49
2023/06/07 06:55:49;;;;;;;;;;;;;;;;;;5048414;28;19987;-49
2023/06/07 06:58:15;;;;;;;;;;;;;;;;;;5047625;28;19949;-49
2023/06/07 07:00:41;;;;;;;;;;;;;;;;;;5049258;28;19913;-50
2023/06/07 07:03:07;;;;;;;;;;;;;;;;;;5053899;28;20348;-49
2023/06/07 07:05:33;;;;;;;;;;;;;;;;;;5045261;28;19956;-50
2023/06/07 07:07:59;;;;;;;;;;;;;;;;;;5050004;28;20414;-50
2023/06/07 07:10:25;;;;;;;;;;;;;;;;;;5049528;28;20375;-50
2023/06/07 07:12:51;;;;;;;;;;;;;;;;;;5046803;28;20034;-50
2023/06/07 07:15:17;;;;;;;;;;;;;;;;;;5044628;28;20678;-50
2023/06/07 07:17:43;;;;;;;;;;;;;;;;;;5049969;28;19950;-50
2023/06/07 07:20:10;;;;;;;;;;;;;;;;;;5049806;28;19923;-50
2023/06/07 07:22:36;;;;;;;;;;;;;;;;;;5048529;28;20342;-49
2023/06/07 07:25:02;;;;;;;;;;;;;;;;;;5049976;28;19948;-50
2023/06/07 07:27:28;;;;;;;;;;;;;;;;;;5045070;28;19916;-50
2023/06/07 07:29:54;;;;;;;;;;;;;;;;;;5044900;28;20292;-50
2023/06/07 07:32:20;;;;;;;;;;;;;;;;;;5048978;28;20411;-51
2023/06/07 07:34:46;;;;;;;;;;;;;;;;;;5042102;28;20441;-50
2023/06/07 07:37:12;;;;;;;;;;;;;;;;;;5048346;28;20381;-50
2023/06/07 07:39:38;;;;;;;;;;;;;;;;;;5050245;28;19913;-50
2023/06/07 07:42:05;;;;;;;;;;;;;;;;;;5048995;28;19919;-50
2023/06/07 07:44:31;;;;;;;;;;;;;;;;;;5049852;28;20407;-50
2023/06/07 07:46:57;;;;;;;;;;;;;;;;;;5048508;28;20019;-49
2023/06/07 07:49:23;;;;;;;;;;;;;;;;;;5048840;28;19985;-50
2023/06/07 07:51:49;;;;;;;;;;;;;;;;;;5048052;28;19952;-49
2023/06/07 07:54:15;;;;;;;;;;;;;;;;;;5049098;28;20332;-50
2023/06/07 07:56:41;;;;;;;;;;;;;;;;;;5045903;28;19917;-50
2023/06/07 07:59:07;;;;;;;;;;;;;;;;;;5049406;28;19939;-51
2023/06/07 08:01:34;;;;;;;;;;;;;;;;;;5049465;28;19943;-50
2023/06/07 08:04:00;;;;;;;;;;;;;;;;;;5049115;28;20681;-50
2023/06/07 08:06:26;;;;;;;;;;;;;;;;;;5048881;28;20301;-50
2023/06/07 08:08:52;;;;;;;;;;;;;;;;;;5049926;28;20356;-50
2023/06/07 08:11:18;;;;;;;;;;;;;;;;;;5048434;28;19963;-51
2023/06/07 08:13:44;;;;;;;;;;;;;;;;;;5046782;28;20043;-50
2023/06/07 08:16:10;;;;;;;;;;;;;;;;;;5047012;28;19927;-50
2023/06/07 08:18:36;;;;;;;;;;;;;;;;;;5048811;28;20004;-51
2023/06/07 08:21:03;;;;;;;;;;;;;;;;;;5031085;28;20329;-51
2023/06/07 08:23:30;;;;;;;;;;;;;;;;;;5039428;28;20023;-52
2023/06/07 08:25:58;;;;;;;;;;;;;;;;;;5046725;28;19939;-51
2023/06/07 08:28:24;;;;;;;;;;;;;;;;;;5047731;28;19920;-51
2023/06/07 08:30:50;;;;;;;;;;;;;;;;;;5048485;28;20005;-50
2023/06/07 08:33:16;;;;;;;;;;;;;;;;;;5048332;28;19951;-51
2023/06/07 08:35:42;;;;;;;;;;;;;;;;;;5047823;28;20643;-51
2023/06/07 08:38:08;;;;;;;;;;;;;;;;;;5046798;28;19975;-51
2023/06/07 08:40:34;;;;;;;;;;;;;;;;;;5046255;28;20311;-51
2023/06/07 08:43:01;;;;;;;;;;;;;;;;;;5048735;28;20495;-52
2023/06/07 08:45:27;;;;;;;;;;;;;;;;;;5048585;28;20055;-52
2023/06/07 08:47:53;;;;;;;;;;;;;;;;;;5047211;28;19920;-52
2023/06/07 08:50:19;;;;;;;;;;;;;;;;;;5048366;28;19963;-58
2023/06/07 08:52:47;;;;;;;;;;;;;;;;;;5049467;28;19908;-53
2023/06/07 08:55:13;;;;;;;;;;;;;;;;;;5049350;28;20005;-54
2023/06/07 08:57:40;;;;;;;;;;;;;;;;;;5048032;28;19919;-54
2023/06/07 09:00:07;;;;;;;;;;;;;;;;;;5048372;28;19932;-55
2023/06/07 09:02:32;;;;;;;;;;;;;;;;;;5048467;28;19921;-55
2023/06/07 09:05:05;;;;;;;;;;;;;;;;;;5046940;28;20376;-53
2023/06/07 09:07:31;;;;;;;;;;;;;;;;;;5043918;28;19925;-54
2023/06/07 09:09:57;;;;;;;;;;;;;;;;;;5037706;28;19960;-54
2023/06/07 09:12:26;;;;;;;;;;;;;;;;;;5045987;28;20317;-54
2023/06/07 09:14:52;;;;;;;;;;;;;;;;;;5048065;28;20336;-54
2023/06/07 09:17:18;;;;;;;;;;;;;;;;;;5031230;28;19917;-54
2023/06/07 09:19:44;;;;;;;;;;;;;;;;;;5049478;28;19912;-53
2023/06/07 09:22:14;;;;;;;;;;;;;;;;;;5042251;28;19960;-53
2023/06/07 09:24:40;;;;;;;;;;;;;;;;;;5028109;28;19920;-54
2023/06/07 09:27:07;;;;;;;;;;;;;;;;;;5028466;28;19991;-53
2023/06/07 09:29:33;;;;;;;;;;;;;;;;;;5042001;28;19917;-53
2023/06/07 09:31:59;;;;;;;;;;;;;;;;;;5049024;28;20441;-53
2023/06/07 09:34:26;;;;;;;;;;;;;;;;;;5024335;28;20376;-53
2023/06/07 09:36:52;;;;;;;;;;;;;;;;;;5028694;28;20339;-54
2023/06/07 09:39:18;;;;;;;;;;;;;;;;;;5042490;28;19956;-54
2023/06/07 09:41:44;;;;;;;;;;;;;;;;;;5048374;28;19927;-54
2023/06/07 09:44:11;;;;;;;;;;;;;;;;;;5048029;28;19917;-53
2023/06/07 09:46:37;;;;;;;;;;;;;;;;;;5050198;28;20362;-54
2023/06/07 09:49:03;;;;;;;;;;;;;;;;;;5034939;28;20015;-54
2023/06/07 09:51:29;;;;;;;;;;;;;;;;;;5050110;28;19923;-54
2023/06/07 09:53:55;;;;;;;;;;;;;;;;;;5038637;28;19953;-54
2023/06/07 09:56:24;;;;;;;;;;;;;;;;;;5045920;28;19931;-54
2023/06/07 09:58:51;;;;;;;;;;;;;;;;;;5052529;28;20356;-55
2023/06/07 10:01:17;;;;;;;;;;;;;;;;;;5052923;28;19913;-55
2023/06/07 10:03:47;;;;;;;;;;;;;;;;;;5052706;28;20330;-55
2023/06/07 10:06:13;;;;;;;;;;;;;;;;;;5052435;28;20039;-54
2023/06/07 10:08:39;;;;;;;;;;;;;;;;;;5052548;28;19924;-59
2023/06/07 10:11:05;;;;;;;;;;;;;;;;;;5051389;28;19960;-56
2023/06/07 10:13:31;;;;;;;;;;;;;;;;;;5050580;28;19920;-56
2023/06/07 10:15:58;;;;;;;;;;;;;;;;;;5052196;28;19921;-54
2023/06/07 10:18:24;;;;;;;;;;;;;;;;;;5052221;28;19954;-58
2023/06/07 10:20:50;;;;;;;;;;;;;;;;;;5047855;28;20008;-54
2023/06/07 10:23:16;;;;;;;;;;;;;;;;;;5041121;28;20007;-54
2023/06/07 10:25:43;;;;;;;;;;;;;;;;;;5045226;28;19917;-54
2023/06/07 10:28:09;;;;;;;;;;;;;;;;;;5046481;28;20406;-54
2023/06/07 10:30:36;;;;;;;;;;;;;;;;;;5050247;28;19924;-54
2023/06/07 10:33:03;;;;;;;;;;;;;;;;;;5049057;28;20396;-54
2023/06/07 10:35:30;;;;;;;;;;;;;;;;;;5045694;28;19917;-54
2023/06/07 10:37:56;;;;;;;;;;;;;;;;;;5047875;28;20292;-54
2023/06/07 10:40:22;;;;;;;;;;;;;;;;;;5049478;28;20405;-55
2023/06/07 10:42:49;;;;;;;;;;;;;;;;;;5046231;28;19916;-52
2023/06/07 10:45:15;;;;;;;;;;;;;;;;;;5042610;28;20312;-52
2023/06/07 10:47:41;;;;;;;;;;;;;;;;;;5047627;28;20334;-52
2023/06/07 10:50:07;;;;;;;;;;;;;;;;;;5033987;28;20325;-52
2023/06/07 10:52:33;;;;;;;;;;;;;;;;;;5042913;28;19921;-52
2023/06/07 10:54:59;;;;;;;;;;;;;;;;;;5040308;28;19917;-51
2023/06/07 10:57:25;;;;;;;;;;;;;;;;;;5049056;28;19944;-51
2023/06/07 10:59:52;;;;;;;;;;;;;;;;;;5051606;28;19995;-51
2023/06/07 11:02:18;;;;;;;;;;;;;;;;;;5051280;28;19948;-51
2023/06/07 11:04:44;;;;;;;;;;;;;;;;;;5046721;28;19935;-51
2023/06/07 11:07:10;;;;;;;;;;;;;;;;;;5045009;28;19912;-51
2023/06/07 11:09:36;;;;;;;;;;;;;;;;;;5040805;28;19956;-51
2023/06/07 11:12:03;;;;;;;;;;;;;;;;;;5039560;28;19917;-51
2023/06/07 11:14:29;;;;;;;;;;;;;;;;;;5041221;28;20315;-51
2023/06/07 11:16:55;;;;;;;;;;;;;;;;;;5042160;28;20316;-50
2023/06/07 11:19:21;;;;;;;;;;;;;;;;;;5041607;28;20390;-51
2023/06/07 11:21:47;;;;;;;;;;;;;;;;;;5039792;28;19984;-50
2023/06/07 11:24:13;;;;;;;;;;;;;;;;;;5036794;28;20001;-51
2023/06/07 11:26:40;;;;;;;;;;;;;;;;;;5041495;28;19909;-50
2023/06/07 11:29:06;;;;;;;;;;;;;;;;;;5042585;28;19924;-51
2023/06/07 11:31:32;;;;;;;;;;;;;;;;;;5045303;28;20169;-50
2023/06/07 11:33:58;;;;;;;;;;;;;;;;;;5045980;28;19970;-50
2023/06/07 11:36:24;;;;;;;;;;;;;;;;;;5049893;28;19960;-51
2023/06/07 11:38:51;;;;;;;;;;;;;;;;;;5048972;28;19925;-51
2023/06/07 11:41:18;;;;;;;;;;;;;;;;;;5049325;28;19959;-51
2023/06/07 11:43:44;;;;;;;;;;;;;;;;;;5048879;28;19935;-51
2023/06/07 11:46:10;;;;;;;;;;;;;;;;;;5049937;28;19974;-51
2023/06/07 11:48:37;;;;;;;;;;;;;;;;;;5048321;28;19921;-51
2023/06/07 11:51:03;;;;;;;;;;;;;;;;;;5049044;28;19962;-51
2023/06/07 11:53:31;;;;;;;;;;;;;;;;;;5031318;28;20323;-52
2023/06/07 11:55:57;;;;;;;;;;;;;;;;;;5046530;28;20004;-51
2023/06/07 11:58:23;;;;;;;;;;;;;;;;;;5049268;28;19913;-52
2023/06/07 12:00:49;;;;;;;;;;;;;;;;;;5049807;28;19959;-51
2023/06/07 12:03:16;;;;;;;;;;;;;;;;;;5049369;28;19913;-52
2023/06/07 12:05:44;;;;;;;;;;;;;;;;;;5049494;28;19913;-52
2023/06/07 12:08:10;;;;;;;;;;;;;;;;;;5046568;28;20011;-52
2023/06/07 12:10:36;;;;;;;;;;;;;;;;;;5046340;28;19917;-52
2023/06/07 12:13:02;;;;;;;;;;;;;;;;;;5024635;28;20363;-52
2023/06/07 12:15:29;;;;;;;;;;;;;;;;;;5048599;28;20387;-55
2023/06/07 12:17:56;;;;;;;;;;;;;;;;;;5049778;28;19917;-51
2023/06/07 12:20:22;;;;;;;;;;;;;;;;;;5045253;28;19923;-52
2023/06/07 12:22:49;;;;;;;;;;;;;;;;;;5042379;28;20077;-52
2023/06/07 12:25:16;;;;;;;;;;;;;;;;;;5048892;28;20292;-54
2023/06/07 12:27:43;;;;;;;;;;;;;;;;;;5048467;28;19923;-54
2023/06/07 12:30:09;;;;;;;;;;;;;;;;;;5042540;28;19917;-55
2023/06/07 12:32:35;;;;;;;;;;;;;;;;;;5024542;28;19916;-55
2023/06/07 12:35:01;;;;;;;;;;;;;;;;;;5045824;28;19916;-53
2023/06/07 12:37:27;;;;;;;;;;;;;;;;;;5048135;28;20003;-52
2023/06/07 12:39:53;;;;;;;;;;;;;;;;;;5047997;28;20066;-52
2023/06/07 12:42:19;;;;;;;;;;;;;;;;;;5049114;28;20654;-52
2023/06/07 12:44:47;;;;;;;;;;;;;;;;;;5048511;28;19939;-52
2023/06/07 12:47:13;;;;;;;;;;;;;;;;;;5031415;28;19913;-52
2023/06/07 12:49:41;;;;;;;;;;;;;;;;;;5049440;28;20041;-52
2023/06/07 12:52:08;;;;;;;;;;;;;;;;;;5048630;28;19917;-52
2023/06/07 12:54:35;;;;;;;;;;;;;;;;;;5049720;28;20351;-52
2023/06/07 12:57:01;;;;;;;;;;;;;;;;;;5030112;28;19916;-52
2023/06/07 12:59:27;;;;;;;;;;;;;;;;;;5049457;28;20019;-52
2023/06/07 13:01:54;;;;;;;;;;;;;;;;;;5048526;28;19999;-52
2023/06/07 13:04:20;;;;;;;;;;;;;;;;;;5049051;28;20008;-52
2023/06/07 13:06:46;;;;;;;;;;;;;;;;;;5048963;28;19919;-52
2023/06/07 13:09:12;;;;;;;;;;;;;;;;;;5049004;28;20342;-54
2023/06/07 13:11:38;;;;;;;;;;;;;;;;;;5048418;28;19924;-52
2023/06/07 13:14:05;;;;;;;;;;;;;;;;;;5046995;28;20374;-53
2023/06/07 13:16:31;;;;;;;;;;;;;;;;;;5043085;28;20660;-52
2023/06/07 13:18:57;;;;;;;;;;;;;;;;;;5052968;28;19917;-52
2023/06/07 13:21:24;;;;;;;;;;;;;;;;;;5051370;28;20279;-52
2023/06/07 13:23:50;;;;;;;;;;;;;;;;;;5052975;28;19917;-52
2023/06/07 13:26:16;;;;;;;;;;;;;;;;;;5052436;28;19912;-52
2023/06/07 13:28:44;;;;;;;;;;;;;;;;;;5052570;28;19955;-52
2023/06/07 13:31:10;;;;;;;;;;;;;;;;;;5033148;28;19983;-52
2023/06/07 13:33:36;;;;;;;;;;;;;;;;;;5052391;28;19924;-52
2023/06/07 13:36:02;;;;;;;;;;;;;;;;;;5051460;28;19964;-52
2023/06/07 13:38:29;;;;;;;;;;;;;;;;;;5052486;28;20380;-53
2023/06/07 13:40:55;;;;;;;;;;;;;;;;;;5052126;28;19920;-53
2023/06/07 13:43:21;;;;;;;;;;;;;;;;;;5050688;28;19959;-53
2023/06/07 13:45:47;;;;;;;;;;;;;;;;;;5052779;28;20292;-53
2023/06/07 13:48:14;;;;;;;;;;;;;;;;;;5051895;28;19959;-52
2023/06/07 13:50:40;;;;;;;;;;;;;;;;;;5051238;28;20296;-53
2023/06/07 13:53:06;;;;;;;;;;;;;;;;;;5051523;28;19919;-53
2023/06/07 13:55:32;;;;;;;;;;;;;;;;;;5042622;28;19921;-52
2023/06/07 13:57:58;;;;;;;;;;;;;;;;;;5021405;28;19967;-54
2023/06/07 14:13:23;;;;;;;;;;;;;;;;;;5011803;28;20439;-53
2023/06/07 14:15:49;;;;;;;;;;;;;;;;;;5022122;28;19944;-53
2023/06/07 14:18:15;;;;;;;;;;;;;;;;;;5029607;28;20032;-54
2023/06/07 14:20:41;;;;;;;;;;;;;;;;;;5029379;28;20043;-56
2023/06/07 14:23:08;;;;;;;;;;;;;;;;;;5012900;28;19929;-55
2023/06/07 14:25:34;;;;;;;;;;;;;;;;;;5038150;28;19913;-55
2023/06/07 14:28:00;;;;;;;;;;;;;;;;;;5038163;28;19921;-55
2023/06/07 14:30:27;;;;;;;;;;;;;;;;;;5029570;28;19939;-55
2023/06/07 14:32:53;;;;;;;;;;;;;;;;;;5028653;28;19917;-55
2023/06/07 14:35:19;;;;;;;;;;;;;;;;;;5035601;28;20552;-55
2023/06/07 14:37:45;;;;;;;;;;;;;;;;;;5030829;28;19924;-54
2023/06/07 14:40:11;;;;;;;;;;;;;;;;;;5029995;28;19939;-55
2023/06/07 14:42:38;;;;;;;;;;;;;;;;;;5029962;28;20003;-56
2023/06/07 14:45:04;;;;;;;;;;;;;;;;;;5029140;28;20007;-54
2023/06/07 14:47:30;;;;;;;;;;;;;;;;;;5026084;28;19917;-55
2023/06/07 14:49:56;;;;;;;;;;;;;;;;;;5013871;28;20015;-55
2023/06/07 14:52:23;;;;;;;;;;;;;;;;;;5029999;28;20046;-54
2023/06/07 14:54:49;;;;;;;;;;;;;;;;;;5029609;28;19940;-55
2023/06/07 14:57:16;;;;;;;;;;;;;;;;;;5029582;28;19931;-55
2023/06/07 14:59:42;;;;;;;;;;;;;;;;;;5029407;28;19924;-53
2023/06/07 15:02:08;;;;;;;;;;;;;;;;;;5015908;28;19921;-54
2023/06/07 15:04:35;;;;;;;;;;;;;;;;;;5029859;28;19921;-55
2023/06/07 15:07:01;;;;;;;;;;;;;;;;;;5027758;28;20039;-54
2023/06/07 15:09:27;;;;;;;;;;;;;;;;;;5029544;28;20399;-54
2023/06/07 15:11:53;;;;;;;;;;;;;;;;;;5018790;28;19968;-55
2023/06/07 15:14:19;;;;;;;;;;;;;;;;;;5031028;28;19951;-55
2023/06/07 15:16:45;;;;;;;;;;;;;;;;;;5013859;28;19971;-55
2023/06/07 15:19:12;;;;;;;;;;;;;;;;;;5023152;28;20314;-55
2023/06/07 15:21:38;;;;;;;;;;;;;;;;;;5028811;28;19928;-57
2023/06/07 15:24:04;;;;;;;;;;;;;;;;;;5028619;28;19917;-56
2023/06/07 15:26:30;;;;;;;;;;;;;;;;;;5036229;28;19968;-56
2023/06/07 15:28:56;;;;;;;;;;;;;;;;;;5015516;28;19969;-56
2023/06/07 15:31:22;;;;;;;;;;;;;;;;;;5024018;28;19952;-56
2023/06/07 15:33:48;;;;;;;;;;;;;;;;;;5019126;28;19949;-55
2023/06/07 15:36:14;;;;;;;;;;;;;;;;;;5028515;28;19924;-55
2023/06/07 15:38:41;;;;;;;;;;;;;;;;;;5023109;28;19917;-56
2023/06/07 15:41:07;;;;;;;;;;;;;;;;;;5019486;28;19945;-55
2023/06/07 15:43:33;;;;;;;;;;;;;;;;;;5020484;28;19925;-57
2023/06/07 15:45:59;;;;;;;;;;;;;;;;;;5024898;28;20364;-57
2023/06/07 15:48:44;;;;;;;;;;;;;;;;;;5133708;27;19965;-57
2023/06/07 15:51:10;;;;;;;;;;;;;;;;;;5093305;28;19915;-57
2023/06/07 15:53:38;;;;;;;;;;;;;;;;;;5105694;27;19912;-58
2023/06/07 15:56:04;;;;;;;;;;;;;;;;;;5110692;27;20010;-59
2023/06/07 15:58:30;;;;;;;;;;;;;;;;;;5086616;28;19926;-59
2023/06/07 16:00:56;;;;;;;;;;;;;;;;;;5108938;27;20007;-61
2023/06/07 16:03:23;;;;;;;;;;;;;;;;;;5113634;27;19923;-58
2023/06/07 16:05:49;;;;;;;;;;;;;;;;;;5110108;27;19968;-59
2023/06/07 16:08:15;;;;;;;;;;;;;;;;;;5111028;27;20331;-58
2023/06/07 16:10:41;;;;;;;;;;;;;;;;;;5109712;27;20022;-58
2023/06/07 16:13:07;;;;;;;;;;;;;;;;;;5094544;28;19920;-58
2023/06/07 16:15:33;;;;;;;;;;;;;;;;;;5098927;28;19927;-59
2023/06/07 16:18:00;;;;;;;;;;;;;;;;;;5103629;28;20381;-58
2023/06/07 16:20:26;;;;;;;;;;;;;;;;;;5105761;28;20010;-59
2023/06/07 16:22:52;;;;;;;;;;;;;;;;;;5101137;28;20054;-59
2023/06/07 16:25:18;;;;;;;;;;;;;;;;;;5097650;28;19991;-58
2023/06/07 16:27:44;;;;;;;;;;;;;;;;;;5093366;28;19964;-59
2023/06/07 16:30:10;;;;;;;;;;;;;;;;;;5096982;28;20007;-58
2023/06/07 16:32:36;;;;;;;;;;;;;;;;;;5092462;28;19952;-59
2023/06/07 16:35:02;;;;;;;;;;;;;;;;;;5096696;28;19967;-58
2023/06/07 16:37:28;;;;;;;;;;;;;;;;;;5090275;28;20057;-58
2023/06/07 16:39:54;;;;;;;;;;;;;;;;;;5100511;28;20058;-59
2023/06/07 16:42:20;;;;;;;;;;;;;;;;;;5100904;28;20434;-59
2023/06/07 16:44:46;;;;;;;;;;;;;;;;;;5093614;28;20355;-59
2023/06/07 16:47:12;;;;;;;;;;;;;;;;;;5096862;28;20278;-59
2023/06/07 16:49:38;;;;;;;;;;;;;;;;;;5099915;28;19955;-58
2023/06/07 16:52:04;;;;;;;;;;;;;;;;;;5098261;28;20050;-57